Time;durP1;ratioP1;P1;durP2;ratioP2;P2;SDS_P1;SDS_P2;PMS_P1;PMS_P2;Temp;Humidity;BMP_temperature;BMP_pressure;BME280_temperature;BME280_humidity;BME280_pressure;Samples;Min_cycle;Max_cycle;Signal;HPM_P1;HPM_P2
2024/01/14 00:01:17;;;;;;;128.20;96.30;;;;;;;21.87;45.05;100392.78;31492707;28;20238;-46
2024/01/14 00:16:20;;;;;;;118.75;87.22;;;;;;;21.78;44.75;100392.09;31446271;28;20517;-50
2024/01/14 00:31:23;;;;;;;104.85;78.07;;;;;;;21.75;44.86;100364.47;31494249;28;20240;-44
2024/01/14 00:46:26;;;;;;;104.22;75.55;;;;;;;21.64;44.78;100341.50;31522609;28;20222;-48
2024/01/14 01:01:29;;;;;;;86.38;67.22;;;;;;;21.61;44.81;100330.88;31580860;28;20477;-47
2024/01/14 01:16:33;;;;;;;82.93;60.83;;;;;;;21.65;45.02;100311.16;31478658;28;20226;-46
2024/01/14 01:31:36;;;;;;;162.88;108.82;;;;;;;21.60;45.34;100317.06;31521018;28;20226;-45
2024/01/14 01:46:40;;;;;;;233.23;148.45;;;;;;;21.49;45.17;100302.56;31563777;28;20226;-46
2024/01/14 02:01:44;;;;;;;204.98;133.73;;;;;;;21.42;45.11;100298.69;31632253;28;20276;-42
2024/01/14 02:16:47;;;;;;;185.38;120.25;;;;;;;21.32;45.22;100266.00;31466692;28;20559;-44
2024/01/14 02:31:50;;;;;;;153.05;102.70;;;;;;;21.22;45.19;100256.00;31434682;28;20232;-45
2024/01/14 02:46:53;;;;;;;128.88;86.13;;;;;;;21.13;45.53;100235.47;31509072;28;20634;-46
2024/01/14 03:01:56;;;;;;;112.55;76.20;;;;;;;21.11;45.50;100232.19;31615169;28;20218;-46
2024/01/14 03:17:00;;;;;;;101.22;66.57;;;;;;;20.99;45.71;100215.22;31502976;28;20313;-36
2024/01/14 03:32:03;;;;;;;86.72;60.20;;;;;;;20.93;45.57;100210.97;31625291;28;20222;-38
2024/01/14 03:47:06;;;;;;;78.88;54.33;;;;;;;20.87;45.47;100192.59;31516516;28;20517;-45
2024/01/14 04:02:09;;;;;;;71.55;49.55;;;;;;;20.82;45.57;100176.69;31523003;28;20229;-37
2024/01/14 04:17:12;;;;;;;69.50;47.40;;;;;;;20.95;45.48;100172.66;31507217;28;20232;-37
2024/01/14 04:32:15;;;;;;;59.67;43.00;;;;;;;21.07;45.48;100156.84;31546799;28;20232;-37
2024/01/14 04:47:18;;;;;;;54.55;39.40;;;;;;;21.14;45.60;100140.09;31526682;28;20223;-37
2024/01/14 05:02:21;;;;;;;50.50;36.05;;;;;;;21.17;45.25;100134.53;31531380;28;20313;-51
2024/01/14 05:17:25;;;;;;;43.80;31.33;;;;;;;21.19;45.37;100125.72;31528845;28;20215;-51
2024/01/14 05:32:28;;;;;;;43.53;31.20;;;;;;;21.17;45.11;100103.38;31539344;28;20316;-49
2024/01/14 05:47:31;;;;;;;46.35;32.40;;;;;;;21.22;44.42;100108.84;31454566;28;20526;-44
2024/01/14 06:02:34;;;;;;;126.30;82.60;;;;;;;21.20;44.49;100099.88;31507506;28;20215;-45
2024/01/14 06:17:37;;;;;;;159.50;108.38;;;;;;;21.26;44.47;100080.66;31470791;28;20215;-37
2024/01/14 06:32:41;;;;;;;149.65;103.95;;;;;;;21.34;44.66;100066.34;31441487;28;20224;-40
2024/01/14 06:47:45;;;;;;;127.22;89.32;;;;;;;21.36;44.84;100063.97;31439261;28;20222;-44
2024/01/14 07:02:48;;;;;;;112.75;77.47;;;;;;;21.41;45.03;100050.75;31447980;28;20235;-39
2024/01/14 07:17:51;;;;;;;97.65;67.25;;;;;;;21.42;45.00;100026.91;31441347;28;20227;-40
2024/01/14 07:32:54;;;;;;;80.15;58.45;;;;;;;21.37;44.66;100042.97;31435924;28;20210;-52
2024/01/14 07:47:57;;;;;;;73.25;52.85;;;;;;;21.31;44.77;100030.25;31423231;28;20579;-52
2024/01/14 08:03:02;;;;;;;68.03;47.03;;;;;;;21.21;44.93;100033.59;31438826;28;20722;-51
2024/01/14 08:18:05;;;;;;;60.70;43.10;;;;;;;21.13;44.75;100034.56;31388626;28;20228;-50
2024/01/14 08:33:08;;;;;;;56.97;40.75;;;;;;;21.05;44.83;100024.22;31425781;28;20199;-37
2024/01/14 08:48:13;;;;;;;48.67;36.08;;;;;;;21.12;44.43;100021.59;31420039;28;20231;-50
2024/01/14 09:03:18;;;;;;;45.10;33.22;;;;;;;21.14;44.55;100015.59;31426467;28;20247;-47
2024/01/14 09:18:21;;;;;;;43.90;31.02;;;;;;;21.14;44.51;100012.75;31434631;28;20272;-41
2024/01/14 09:33:24;;;;;;;37.03;27.27;;;;;;;21.08;44.33;100015.00;31448620;28;20198;-49
2024/01/14 09:48:27;;;;;;;36.28;26.33;;;;;;;21.03;44.26;100009.63;31464096;28;20198;-43
2024/01/14 10:03:31;;;;;;;34.33;24.73;;;;;;;21.01;44.32;100006.31;31478373;28;20289;-39
2024/01/14 10:18:37;;;;;;;28.08;21.48;;;;;;;21.10;44.69;99998.50;31455422;28;20233;-45
2024/01/14 10:33:40;;;;;;;26.98;19.75;;;;;;;21.14;44.79;99971.13;31432326;28;20216;-44
2024/01/14 10:48:50;;;;;;;28.52;19.88;;;;;;;21.19;45.36;99936.94;31492721;28;20810;-46
2024/01/14 11:03:54;;;;;;;93.53;62.40;;;;;;;21.51;45.90;99911.47;31442451;28;20234;-44
2024/01/14 11:18:59;;;;;;;172.20;115.38;;;;;;;21.86;46.81;99889.69;31458572;28;20231;-42
2024/01/14 11:34:02;;;;;;;146.85;96.25;;;;;;;22.07;45.59;99861.84;31432873;28;20222;-38
2024/01/14 11:49:08;;;;;;;231.98;158.60;;;;;;;22.20;45.81;99830.56;31448787;28;20488;-46
2024/01/14 12:04:11;;;;;;;153.13;103.50;;;;;;;22.28;45.60;99798.34;31445806;28;20226;-39
2024/01/14 12:19:18;;;;;;;104.43;70.97;;;;;;;22.30;45.04;99773.28;31469324;28;20231;-46
2024/01/14 12:34:21;;;;;;;82.45;56.70;;;;;;;22.09;44.83;99751.78;31486021;28;20649;-42
2024/01/14 12:49:24;;;;;;;72.63;51.15;;;;;;;22.22;44.86;99723.28;31425017;28;20203;-39
2024/01/14 13:04:28;;;;;;;250.88;170.38;;;;;;;22.55;44.77;99692.34;31453949;28;20225;-51
2024/01/14 13:19:31;;;;;;;197.32;131.38;;;;;;;22.67;44.94;99663.78;31462822;28;20655;-50
2024/01/14 13:34:34;;;;;;;135.55;91.78;;;;;;;22.70;44.98;99657.34;31473854;28;20242;-43
2024/01/14 13:49:37;;;;;;;99.05;66.93;;;;;;;22.74;44.88;99623.34;31469072;28;20587;-52
2024/01/14 14:04:41;;;;;;;72.55;49.22;;;;;;;22.57;43.51;99616.22;31454597;28;20253;-44
2024/01/14 14:19:44;;;;;;;66.28;44.30;;;;;;;22.67;42.60;99600.56;31439227;28;20430;-51
2024/01/14 14:34:47;;;;;;;43.67;28.85;;;;;;;22.77;43.14;99586.56;31450918;28;20515;-43
2024/01/14 14:49:50;;;;;;;43.25;30.58;;;;;;;22.68;43.25;99568.97;31465042;28;20586;-37
2024/01/14 15:04:53;;;;;;;39.05;27.95;;;;;;;22.54;42.04;99540.41;31468460;28;20231;-38
2024/01/14 15:20:00;;;;;;;35.33;24.80;;;;;;;22.87;43.55;99527.50;31457350;28;20223;-41
2024/01/14 15:35:03;;;;;;;27.02;19.95;;;;;;;22.89;44.43;99502.41;31481459;28;20226;-37
2024/01/14 15:50:07;;;;;;;26.25;18.88;;;;;;;22.46;43.81;99490.44;31459594;28;20531;-41
2024/01/14 16:05:10;;;;;;;24.58;17.35;;;;;;;22.28;44.27;99459.00;31450224;28;20498;-37
2024/01/14 16:20:14;;;;;;;26.23;15.82;;;;;;;22.19;44.38;99437.81;31468130;28;20272;-48
2024/01/14 16:35:19;;;;;;;26.05;17.38;;;;;;;22.43;42.75;99403.31;31413524;28;20554;-37
2024/01/14 16:50:22;;;;;;;18.17;12.27;;;;;;;22.63;43.53;99418.97;31435024;28;20595;-36
2024/01/14 17:05:25;;;;;;;16.65;13.00;;;;;;;22.94;44.09;99399.94;31397950;28;20673;-37
2024/01/14 17:20:28;;;;;;;16.52;13.50;;;;;;;23.07;43.54;99387.09;31382338;28;20224;-37
2024/01/14 17:35:33;;;;;;;15.85;12.50;;;;;;;22.84;43.45;99366.59;31441848;28;20223;-40
2024/01/14 17:50:36;;;;;;;12.90;10.05;;;;;;;22.80;44.07;99353.19;31407146;28;20210;-39
2024/01/14 18:05:40;;;;;;;12.55;10.43;;;;;;;22.67;43.84;99337.59;31436108;28;20219;-43
2024/01/14 18:20:43;;;;;;;14.88;11.98;;;;;;;22.60;46.78;99334.66;31471299;28;20226;-43
2024/01/14 18:35:46;;;;;;;11.63;8.95;;;;;;;22.62;46.89;99326.59;31447034;28;20222;-44
